createdAt,value
2023-02-19T00:00:09.808Z,7.36
2023-02-19T00:01:10.122Z,7.38
2023-02-19T00:02:09.807Z,7.43
2023-02-19T00:03:10.061Z,7.42
2023-02-19T00:04:09.800Z,7.35
2023-02-19T00:05:09.816Z,7.36
2023-02-19T00:06:09.734Z,7.36
2023-02-19T00:07:09.727Z,7.36
2023-02-19T00:08:09.739Z,7.36
2023-02-19T00:09:09.702Z,7.36
2023-02-19T00:10:09.709Z,7.38
2023-02-19T00:11:10.044Z,7.39
2023-02-19T00:12:09.700Z,7.36
2023-02-19T00:13:09.670Z,7.24
2023-02-19T00:14:09.644Z,7.28
2023-02-19T00:15:09.638Z,7.36
2023-02-19T00:16:09.696Z,7.39
2023-02-19T00:17:09.665Z,7.33
2023-02-19T00:18:09.627Z,7.24
2023-02-19T00:19:09.593Z,7.36
2023-02-19T00:20:09.581Z,7.36
2023-02-19T00:21:09.828Z,7.39
2023-02-19T00:22:09.671Z,7.39
2023-02-19T00:23:09.548Z,7.31
2023-02-19T00:24:09.547Z,7.29
2023-02-19T00:25:09.529Z,7.35
2023-02-19T00:26:18.202Z,7.29
2023-02-19T00:27:10.517Z,7.29
2023-02-19T00:28:09.492Z,7.36
2023-02-19T00:29:09.482Z,7.33
2023-02-19T00:30:17.400Z,7.29
2023-02-19T00:31:09.952Z,7.28
2023-02-19T00:32:09.480Z,7.32
2023-02-19T00:33:09.496Z,7.35
2023-02-19T00:34:09.447Z,7.24
2023-02-19T00:35:09.428Z,7.29
2023-02-19T00:36:09.417Z,7.28
2023-02-19T00:37:10.382Z,7.31
2023-02-19T00:38:09.386Z,7.24
2023-02-19T00:39:09.395Z,7.32
2023-02-19T00:40:09.361Z,7.33
2023-02-19T00:41:09.666Z,7.36
2023-02-19T00:42:09.342Z,7.36
2023-02-19T00:43:09.406Z,7.36
2023-02-19T00:44:09.337Z,7.33
2023-02-19T00:45:09.312Z,7.39
2023-02-19T00:46:09.339Z,7.36
2023-02-19T00:47:09.317Z,7.39
2023-02-19T00:48:09.275Z,7.40
2023-02-19T00:49:09.379Z,7.40
2023-02-19T00:50:09.255Z,7.40
2023-02-19T00:51:09.592Z,7.43
2023-02-19T00:52:09.237Z,7.31
2023-02-19T00:53:09.239Z,7.38
2023-02-19T00:54:09.303Z,7.29
2023-02-19T00:55:09.209Z,7.33
2023-02-19T00:56:09.186Z,7.39
2023-02-19T00:57:09.182Z,7.47
2023-02-19T00:58:09.182Z,7.45
2023-02-19T00:59:09.160Z,7.42
2023-02-19T01:00:09.198Z,7.48
2023-02-19T01:01:09.540Z,7.43
2023-02-19T01:02:09.123Z,7.53
2023-02-19T01:03:09.127Z,7.42
2023-02-19T01:04:09.106Z,7.39
2023-02-19T01:05:09.108Z,7.45
2023-02-19T01:06:09.078Z,7.42
2023-02-19T01:07:10.131Z,7.39
2023-02-19T01:08:09.065Z,7.31
2023-02-19T01:09:09.048Z,7.33
2023-02-19T01:10:09.029Z,7.40
2023-02-19T01:11:09.490Z,7.29
2023-02-19T01:12:09.007Z,7.32
2023-02-19T01:13:09.013Z,7.38
2023-02-19T01:14:08.992Z,7.39
2023-02-19T01:15:08.979Z,7.38
2023-02-19T01:16:09.047Z,7.40
2023-02-19T01:17:08.957Z,7.36
2023-02-19T01:18:08.941Z,7.39
2023-02-19T01:19:08.947Z,7.38
2023-02-19T01:20:08.931Z,7.32
2023-02-19T01:21:09.332Z,7.38
2023-02-19T01:22:08.904Z,7.38
2023-02-19T01:23:08.888Z,7.35
2023-02-19T01:24:08.875Z,7.42
2023-02-19T01:25:08.864Z,7.40
2023-02-19T01:26:08.871Z,7.33
2023-02-19T01:27:08.845Z,7.38
2023-02-19T01:28:08.829Z,7.38
2023-02-19T01:29:08.817Z,7.43
2023-02-19T01:30:08.900Z,7.38
2023-02-19T01:31:09.170Z,7.39
2023-02-19T01:32:08.924Z,7.45
2023-02-19T01:33:08.804Z,7.33
2023-02-19T01:34:09.031Z,7.32
2023-02-19T01:35:08.760Z,7.36
2023-02-19T01:36:08.824Z,7.35
2023-02-19T01:37:08.754Z,7.31
2023-02-19T01:38:08.726Z,7.21
2023-02-19T01:39:08.713Z,7.17
2023-02-19T01:40:08.702Z,7.23
2023-02-19T01:41:09.114Z,7.18
2023-02-19T01:42:08.680Z,7.20
2023-02-19T01:43:08.670Z,7.17
2023-02-19T01:44:08.658Z,7.21
2023-02-19T01:45:08.661Z,7.10
2023-02-19T01:46:08.641Z,7.23
2023-02-19T01:47:08.644Z,7.24
2023-02-19T01:48:08.623Z,7.18
2023-02-19T01:49:08.616Z,7.20
2023-02-19T01:50:08.609Z,7.18
2023-02-19T01:51:09.035Z,7.18
2023-02-19T01:52:08.571Z,7.17
2023-02-19T01:53:08.765Z,7.20
2023-02-19T01:54:08.554Z,7.20
2023-02-19T01:55:08.544Z,7.24
2023-02-19T01:56:08.549Z,7.14
2023-02-19T01:57:08.528Z,7.21
2023-02-19T01:58:08.516Z,7.18
2023-02-19T01:59:08.510Z,7.18
2023-02-19T02:00:08.493Z,7.14
2023-02-19T02:01:08.849Z,7.20
2023-02-19T02:02:08.518Z,7.15
2023-02-19T02:03:08.453Z,7.20
2023-02-19T02:04:08.440Z,7.17
2023-02-19T02:05:08.434Z,7.25
2023-02-19T02:06:08.425Z,7.15
2023-02-19T02:07:08.422Z,7.24
2023-02-19T02:08:08.395Z,7.18
2023-02-19T02:09:08.401Z,7.13
2023-02-19T02:10:08.428Z,7.15
2023-02-19T02:11:08.990Z,7.13
2023-02-19T02:12:08.349Z,7.07
2023-02-19T02:13:08.340Z,7.13
2023-02-19T02:14:08.332Z,7.11
2023-02-19T02:15:08.367Z,7.05
2023-02-19T02:16:08.386Z,7.11
2023-02-19T02:17:08.314Z,7.07
2023-02-19T02:18:08.286Z,7.00
2023-02-19T02:19:08.277Z,6.92
2023-02-19T02:20:08.271Z,6.87
2023-02-19T02:21:08.507Z,6.89
2023-02-19T02:22:08.257Z,6.88
2023-02-19T02:23:08.228Z,6.93
2023-02-19T02:24:08.227Z,6.96
2023-02-19T02:25:08.228Z,6.79
2023-02-19T02:26:08.216Z,6.84
2023-02-19T02:27:08.515Z,6.87
2023-02-19T02:28:08.178Z,6.81
2023-02-19T02:29:08.167Z,6.84
2023-02-19T02:30:08.173Z,6.84
2023-02-19T02:31:08.485Z,6.92
2023-02-19T02:32:08.165Z,6.95
2023-02-19T02:33:08.126Z,6.89
2023-02-19T02:34:08.123Z,6.89
2023-02-19T02:35:08.125Z,6.93
2023-02-19T02:36:08.086Z,6.85
2023-02-19T02:37:08.109Z,6.81
2023-02-19T02:38:08.071Z,6.95
2023-02-19T02:39:08.056Z,6.85
2023-02-19T02:40:08.062Z,6.85
2023-02-19T02:41:08.072Z,6.85
2023-02-19T02:42:08.059Z,6.87
2023-02-19T02:43:08.013Z,6.70
2023-02-19T02:44:08.015Z,6.82
2023-02-19T02:45:07.995Z,6.79
2023-02-19T02:46:08.053Z,6.77
2023-02-19T02:47:07.969Z,6.78
2023-02-19T02:48:07.955Z,6.81
2023-02-19T02:49:07.944Z,6.74
2023-02-19T02:50:07.939Z,6.78
2023-02-19T02:51:08.414Z,6.82
2023-02-19T02:52:07.906Z,6.75
2023-02-19T02:53:07.896Z,6.81
2023-02-19T02:54:07.887Z,6.78
2023-02-19T02:55:07.895Z,6.72
2023-02-19T02:56:07.913Z,6.85
2023-02-19T02:57:07.882Z,6.81
2023-02-19T02:58:07.841Z,6.84
2023-02-19T02:59:07.831Z,6.84
2023-02-19T03:00:07.818Z,6.74
2023-02-19T03:01:08.089Z,6.72
2023-02-19T03:02:07.899Z,6.69
2023-02-19T03:03:07.791Z,6.72
2023-02-19T03:04:07.778Z,6.67
2023-02-19T03:05:07.774Z,6.64
2023-02-19T03:06:07.758Z,6.59
2023-02-19T03:07:07.769Z,6.51
2023-02-19T03:08:07.746Z,6.35
2023-02-19T03:09:07.723Z,6.39
2023-02-19T03:10:07.721Z,6.33
2023-02-19T03:11:08.013Z,6.27
2023-02-19T03:12:07.693Z,6.24
2023-02-19T03:13:07.699Z,6.31
2023-02-19T03:14:07.678Z,6.24
2023-02-19T03:15:07.654Z,6.28
2023-02-19T03:16:07.688Z,6.36
2023-02-19T03:17:07.632Z,6.31
2023-02-19T03:18:07.640Z,6.44
2023-02-19T03:19:07.617Z,6.46
2023-02-19T03:20:07.604Z,6.33
2023-02-19T03:21:07.735Z,6.41
2023-02-19T03:22:07.582Z,6.45
2023-02-19T03:23:07.599Z,6.46
2023-02-19T03:24:07.558Z,6.38
2023-02-19T03:25:07.549Z,6.42
2023-02-19T03:26:07.533Z,6.46
2023-02-19T03:27:07.522Z,6.36
2023-02-19T03:28:07.534Z,6.05
2023-02-19T03:29:07.497Z,6.05
2023-02-19T03:30:07.552Z,5.94
2023-02-19T03:31:07.831Z,5.87
2023-02-19T03:32:07.497Z,5.80
2023-02-19T03:33:07.451Z,5.73
2023-02-19T03:34:07.459Z,5.72
2023-02-19T03:35:07.428Z,5.76
2023-02-19T03:36:07.426Z,5.80
2023-02-19T03:37:07.415Z,5.82
2023-02-19T03:38:07.395Z,5.68
2023-02-19T03:39:07.403Z,5.73
2023-02-19T03:40:07.450Z,5.61
2023-02-19T03:41:07.362Z,5.62
2023-02-19T03:42:07.354Z,5.56
2023-02-19T03:43:07.341Z,5.56
2023-02-19T03:44:07.349Z,5.65
2023-02-19T03:45:07.321Z,5.46
2023-02-19T03:46:07.431Z,5.47
2023-02-19T03:47:07.297Z,5.43
2023-02-19T03:48:07.286Z,5.41
2023-02-19T03:49:07.286Z,5.30
2023-02-19T03:50:07.267Z,5.36
2023-02-19T03:51:07.267Z,5.35
2023-02-19T03:52:07.262Z,5.43
2023-02-19T03:53:07.267Z,5.43
2023-02-19T03:54:07.214Z,5.44
2023-02-19T03:55:07.206Z,5.41
2023-02-19T03:56:07.208Z,5.48
2023-02-19T03:57:07.189Z,5.44
2023-02-19T03:58:07.177Z,5.36
2023-02-19T03:59:07.178Z,5.41
2023-02-19T04:00:07.155Z,5.33
2023-02-19T04:01:07.143Z,5.38
2023-02-19T04:02:07.170Z,5.44
2023-02-19T04:03:07.923Z,5.44
2023-02-19T04:04:07.126Z,5.41
2023-02-19T04:05:07.108Z,5.43
2023-02-19T04:06:07.091Z,5.51
2023-02-19T04:07:07.080Z,5.54
2023-02-19T04:08:07.066Z,5.47
2023-02-19T04:09:07.069Z,5.43
2023-02-19T04:10:07.047Z,5.46
2023-02-19T04:11:07.067Z,5.41
2023-02-19T04:12:07.149Z,5.41
2023-02-19T04:13:07.018Z,5.38
2023-02-19T04:14:07.012Z,5.43
2023-02-19T04:15:06.989Z,5.39
2023-02-19T04:16:06.980Z,5.43
2023-02-19T04:17:06.997Z,5.36
2023-02-19T04:18:06.966Z,5.39
2023-02-19T04:19:06.950Z,5.44
2023-02-19T04:20:06.997Z,5.43
2023-02-19T04:21:06.930Z,5.41
2023-02-19T04:22:06.920Z,5.41
2023-02-19T04:23:06.903Z,5.46
2023-02-19T04:24:06.948Z,5.44
2023-02-19T04:25:06.907Z,5.43
2023-02-19T04:26:06.882Z,5.43
2023-02-19T04:27:06.864Z,5.39
2023-02-19T04:28:06.845Z,5.44
2023-02-19T04:29:06.866Z,5.44
2023-02-19T04:30:06.867Z,5.41
2023-02-19T04:31:06.876Z,5.43
2023-02-19T04:32:06.821Z,5.43
2023-02-19T04:33:06.801Z,5.41
2023-02-19T04:34:06.801Z,5.39
2023-02-19T04:35:06.762Z,5.43
2023-02-19T04:36:06.756Z,5.44
2023-02-19T04:37:06.754Z,5.46
2023-02-19T04:38:06.769Z,5.41
2023-02-19T04:39:06.760Z,5.61
2023-02-19T04:40:06.714Z,5.48
2023-02-19T04:41:06.695Z,5.48
2023-02-19T04:42:06.692Z,5.51
2023-02-19T04:43:06.676Z,5.51
2023-02-19T04:44:06.666Z,5.43
2023-02-19T04:45:06.665Z,5.44
2023-02-19T04:46:06.660Z,5.51
2023-02-19T04:47:06.649Z,5.50
2023-02-19T04:48:06.627Z,5.53
2023-02-19T04:49:06.632Z,5.46
2023-02-19T04:50:06.597Z,5.50
2023-02-19T04:51:06.600Z,5.43
2023-02-19T04:52:06.573Z,5.39
2023-02-19T04:53:06.605Z,5.30
2023-02-19T04:54:06.636Z,5.35
2023-02-19T04:55:06.542Z,5.41
2023-02-19T04:56:06.531Z,5.38
2023-02-19T04:57:06.533Z,5.29
2023-02-19T04:58:06.510Z,5.23
2023-02-19T04:59:06.526Z,5.35
2023-02-19T05:00:06.488Z,5.32
2023-02-19T05:01:06.546Z,5.32
2023-02-19T05:02:06.461Z,5.36
2023-02-19T05:03:06.473Z,5.25
2023-02-19T05:04:06.469Z,5.11
2023-02-19T05:05:06.493Z,5.05
2023-02-19T05:06:06.416Z,5.07
2023-02-19T05:07:06.421Z,5.00
2023-02-19T05:08:06.418Z,4.86
2023-02-19T05:09:06.403Z,4.89
2023-02-19T05:10:06.378Z,4.82
2023-02-19T05:11:06.382Z,4.87
2023-02-19T05:12:06.356Z,4.86
2023-02-19T05:13:06.370Z,4.90
2023-02-19T05:14:06.334Z,4.90
2023-02-19T05:15:06.391Z,4.90
2023-02-19T05:16:06.339Z,4.89
2023-02-19T05:17:06.294Z,4.87
2023-02-19T05:18:06.307Z,4.78
2023-02-19T05:19:06.340Z,4.90
2023-02-19T05:20:06.272Z,4.87
2023-02-19T05:21:06.262Z,4.84
2023-02-19T05:22:06.247Z,4.89
2023-02-19T05:23:06.245Z,4.86
2023-02-19T05:24:06.225Z,4.84
2023-02-19T05:25:06.211Z,4.87
2023-02-19T05:26:06.234Z,4.84
2023-02-19T05:27:06.191Z,4.84
2023-02-19T05:28:06.284Z,4.84
2023-02-19T05:29:06.166Z,4.97
2023-02-19T05:30:06.211Z,4.96
2023-02-19T05:31:06.175Z,5.04
2023-02-19T05:32:06.204Z,4.87
2023-02-19T05:33:06.119Z,4.86
2023-02-19T05:34:06.127Z,4.90
2023-02-19T05:35:06.100Z,4.87
2023-02-19T05:36:06.095Z,4.99
2023-02-19T05:37:06.936Z,4.89
2023-02-19T05:38:06.088Z,4.90
2023-02-19T05:39:06.078Z,4.96
2023-02-19T05:40:06.051Z,4.89
2023-02-19T05:41:06.034Z,4.87
2023-02-19T05:42:06.020Z,4.86
2023-02-19T05:43:06.063Z,4.92
2023-02-19T05:44:06.017Z,4.87
2023-02-19T05:45:05.990Z,4.86
2023-02-19T05:46:06.014Z,4.96
2023-02-19T05:47:05.986Z,4.99
2023-02-19T05:48:05.960Z,5.05
2023-02-19T05:49:05.945Z,5.07
2023-02-19T05:50:05.936Z,5.00
2023-02-19T05:51:05.952Z,5.05
2023-02-19T05:52:05.948Z,4.99
2023-02-19T05:53:05.909Z,4.94
2023-02-19T05:54:05.902Z,4.89
2023-02-19T05:55:05.879Z,4.87
2023-02-19T05:56:05.889Z,4.97
2023-02-19T05:57:05.858Z,4.96
2023-02-19T05:58:05.850Z,5.08
2023-02-19T05:59:05.833Z,5.10
2023-02-19T06:00:05.851Z,5.10
2023-02-19T06:01:05.818Z,5.04
2023-02-19T06:02:05.829Z,5.15
2023-02-19T06:03:05.799Z,5.17
2023-02-19T06:04:05.854Z,5.11
2023-02-19T06:05:05.783Z,5.18
2023-02-19T06:06:05.756Z,5.18
2023-02-19T06:07:05.747Z,5.25
2023-02-19T06:08:05.737Z,5.20
2023-02-19T06:09:05.743Z,5.26
2023-02-19T06:10:05.734Z,5.21
2023-02-19T06:11:05.710Z,5.26
2023-02-19T06:12:05.726Z,5.28
2023-02-19T06:13:05.715Z,5.23
2023-02-19T06:14:05.686Z,5.21
2023-02-19T06:15:05.681Z,5.20
2023-02-19T06:16:05.682Z,5.23
2023-02-19T06:17:05.636Z,5.21
2023-02-19T06:18:05.626Z,5.26
2023-02-19T06:19:05.970Z,5.33
2023-02-19T06:20:05.612Z,5.35
2023-02-19T06:21:05.618Z,5.36
2023-02-19T06:22:05.584Z,5.33
2023-02-19T06:23:05.570Z,5.41
2023-02-19T06:24:05.581Z,5.38
2023-02-19T06:25:05.549Z,5.35
2023-02-19T06:26:05.543Z,5.38
2023-02-19T06:27:05.530Z,5.36
2023-02-19T06:28:05.517Z,5.43
2023-02-19T06:29:05.521Z,5.39
2023-02-19T06:30:14.536Z,5.46
2023-02-19T06:31:05.500Z,5.39
2023-02-19T06:32:05.565Z,5.36
2023-02-19T06:33:05.463Z,5.38
2023-02-19T06:34:05.623Z,5.46
2023-02-19T06:35:05.447Z,5.39
2023-02-19T06:36:05.439Z,5.43
2023-02-19T06:37:05.439Z,5.46
2023-02-19T06:38:05.415Z,5.44
2023-02-19T06:39:05.413Z,5.48
2023-02-19T06:40:05.388Z,5.41
2023-02-19T06:41:05.378Z,5.41
2023-02-19T06:42:05.379Z,5.48
2023-02-19T06:43:05.363Z,5.47
2023-02-19T06:44:05.392Z,5.43
2023-02-19T06:45:05.358Z,5.44
2023-02-19T06:46:05.334Z,5.39
2023-02-19T06:47:05.312Z,5.46
2023-02-19T06:48:05.308Z,5.46
2023-02-19T06:49:05.291Z,5.38
2023-02-19T06:50:05.311Z,5.39
2023-02-19T06:51:05.391Z,5.53
2023-02-19T06:52:05.257Z,5.46
2023-02-19T06:53:05.244Z,5.48
2023-02-19T06:54:05.238Z,5.46
2023-02-19T06:55:05.222Z,5.44
2023-02-19T06:56:05.245Z,5.62
2023-02-19T06:57:05.205Z,5.62
2023-02-19T06:58:05.233Z,5.44
2023-02-19T06:59:05.201Z,5.62
2023-02-19T07:00:05.188Z,5.62
2023-02-19T07:01:05.204Z,5.64
2023-02-19T07:02:05.150Z,5.61
2023-02-19T07:03:05.669Z,5.59
2023-02-19T07:04:05.200Z,5.69
2023-02-19T07:05:05.111Z,5.61
2023-02-19T07:06:05.107Z,5.62
2023-02-19T07:07:05.086Z,5.65
2023-02-19T07:08:05.124Z,5.68
2023-02-19T07:09:05.068Z,5.79
2023-02-19T07:10:05.077Z,5.82
2023-02-19T07:11:05.043Z,5.89
2023-02-19T07:12:05.036Z,5.84
2023-02-19T07:13:05.023Z,5.87
2023-02-19T07:14:05.012Z,5.97
2023-02-19T07:15:05.082Z,5.99
2023-02-19T07:16:05.069Z,6.04
2023-02-19T07:17:05.082Z,5.94
2023-02-19T07:18:05.477Z,5.98
2023-02-19T07:19:05.088Z,6.07
2023-02-19T07:20:04.973Z,6.08
2023-02-19T07:21:04.944Z,6.07
2023-02-19T07:22:04.923Z,6.02
2023-02-19T07:23:04.949Z,6.11
2023-02-19T07:24:04.898Z,6.01
2023-02-19T07:25:04.899Z,6.11
2023-02-19T07:26:04.901Z,6.14
2023-02-19T07:27:04.876Z,5.97
2023-02-19T07:28:04.851Z,6.14
2023-02-19T07:29:04.838Z,6.11
2023-02-19T07:30:04.925Z,6.26
2023-02-19T07:31:04.845Z,6.19
2023-02-19T07:32:04.836Z,6.24
2023-02-19T07:33:04.814Z,6.33
2023-02-19T07:34:04.852Z,6.27
2023-02-19T07:35:04.772Z,6.38
2023-02-19T07:36:04.917Z,6.46
2023-02-19T07:37:04.774Z,6.52
2023-02-19T07:38:04.744Z,6.54
2023-02-19T07:39:04.731Z,6.54
2023-02-19T07:40:04.765Z,6.59
2023-02-19T07:41:04.716Z,6.64
2023-02-19T07:42:04.925Z,6.62
2023-02-19T07:43:04.686Z,6.66
2023-02-19T07:44:04.677Z,6.63
2023-02-19T07:45:04.697Z,6.63
2023-02-19T07:46:04.728Z,6.62
2023-02-19T07:47:04.645Z,6.75
2023-02-19T07:48:04.656Z,6.70
2023-02-19T07:49:04.624Z,6.69
2023-02-19T07:50:04.616Z,6.66
2023-02-19T07:51:04.615Z,6.67
2023-02-19T07:52:04.583Z,6.77
2023-02-19T07:53:04.699Z,6.85
2023-02-19T07:54:04.575Z,6.84
2023-02-19T07:55:04.585Z,6.88
2023-02-19T07:56:04.565Z,6.93
2023-02-19T07:57:04.604Z,7.05
2023-02-19T07:58:06.154Z,7.24
2023-02-19T07:59:04.511Z,7.29
2023-02-19T08:00:04.506Z,7.36
2023-02-19T08:01:04.634Z,7.29
2023-02-19T08:02:04.479Z,7.31
2023-02-19T08:03:04.472Z,7.24
2023-02-19T08:04:04.459Z,7.23
2023-02-19T08:05:04.445Z,7.40
2023-02-19T08:06:04.435Z,7.39
2023-02-19T08:07:04.456Z,7.53
2023-02-19T08:08:04.413Z,7.72
2023-02-19T08:09:04.415Z,7.97
2023-02-19T08:10:04.391Z,8.23
2023-02-19T08:11:04.379Z,8.60
2023-02-19T08:12:04.370Z,8.91
2023-02-19T08:13:04.385Z,9.25
2023-02-19T08:14:04.370Z,9.61
2023-02-19T08:15:04.333Z,10.09
2023-02-19T08:16:17.025Z,10.60
2023-02-19T08:17:05.436Z,11.07
2023-02-19T08:18:04.301Z,11.26
2023-02-19T08:19:04.288Z,10.96
2023-02-19T08:20:04.287Z,10.74
2023-02-19T08:21:04.279Z,10.59
2023-02-19T08:22:04.255Z,10.64
2023-02-19T08:23:04.254Z,10.72
2023-02-19T08:24:04.244Z,11.14
2023-02-19T08:25:04.297Z,11.41
2023-02-19T08:26:04.235Z,11.70
2023-02-19T08:27:04.202Z,11.69
2023-02-19T08:28:04.198Z,11.99
2023-02-19T08:29:04.180Z,11.88
2023-02-19T08:30:04.206Z,11.84
2023-02-19T08:31:04.356Z,12.09
2023-02-19T08:32:04.164Z,12.39
2023-02-19T08:33:04.144Z,12.64
2023-02-19T08:34:04.130Z,12.76
2023-02-19T08:35:04.111Z,12.90
2023-02-19T08:36:04.157Z,12.95
2023-02-19T08:37:04.099Z,12.95
2023-02-19T08:38:04.072Z,13.15
2023-02-19T08:39:04.066Z,13.47
2023-02-19T08:40:04.059Z,13.77
2023-02-19T08:41:04.051Z,13.97
2023-02-19T08:42:04.042Z,14.26
2023-02-19T08:43:04.036Z,14.58
2023-02-19T08:44:04.207Z,14.92
2023-02-19T08:45:03.998Z,15.07
2023-02-19T08:46:04.092Z,14.29
2023-02-19T08:47:03.988Z,14.12
2023-02-19T08:48:03.991Z,14.54
2023-02-19T08:49:03.953Z,15.09
2023-02-19T08:50:03.940Z,15.79
2023-02-19T08:51:03.927Z,15.92
2023-02-19T08:52:03.929Z,16.42
2023-02-19T08:53:03.904Z,16.79
2023-02-19T08:54:03.917Z,16.43
2023-02-19T08:55:03.890Z,16.23
2023-02-19T08:56:03.868Z,16.60
2023-02-19T08:57:03.870Z,16.84
2023-02-19T08:58:03.844Z,16.99
2023-02-19T08:59:03.837Z,16.57
2023-02-19T09:00:03.828Z,15.82
2023-02-19T09:01:03.852Z,16.12
2023-02-19T09:02:03.826Z,16.81
2023-02-19T09:03:03.792Z,16.76
2023-02-19T09:04:03.828Z,15.88
2023-02-19T09:05:03.830Z,15.84
2023-02-19T09:06:03.754Z,15.54
2023-02-19T09:07:03.747Z,14.62
2023-02-19T09:08:03.738Z,13.92
2023-02-19T09:09:03.741Z,13.38
2023-02-19T09:10:03.728Z,13.71
2023-02-19T09:11:03.698Z,13.62
2023-02-19T09:12:03.699Z,13.13
2023-02-19T09:13:03.672Z,12.65
2023-02-19T09:14:03.664Z,12.28
2023-02-19T09:15:03.655Z,12.09
2023-02-19T09:16:03.780Z,11.83
2023-02-19T09:17:03.641Z,11.72
2023-02-19T09:18:03.628Z,11.66
2023-02-19T09:19:03.608Z,11.51
2023-02-19T09:20:03.660Z,11.43
2023-02-19T09:21:03.590Z,11.17
2023-02-19T09:22:03.586Z,10.97
2023-02-19T09:23:03.566Z,10.96
2023-02-19T09:24:03.562Z,11.10
2023-02-19T09:25:03.550Z,11.17
2023-02-19T09:26:03.548Z,11.17
2023-02-19T09:27:03.527Z,11.07
2023-02-19T09:28:03.513Z,11.12
2023-02-19T09:29:03.499Z,11.36
2023-02-19T09:30:03.518Z,11.69
2023-02-19T09:31:03.798Z,11.33
2023-02-19T09:32:03.530Z,11.17
2023-02-19T09:33:03.454Z,11.95
2023-02-19T09:34:03.442Z,12.15
2023-02-19T09:35:03.539Z,12.17
2023-02-19T09:36:03.436Z,12.25
2023-02-19T09:37:03.415Z,12.54
2023-02-19T09:38:03.397Z,12.93
2023-02-19T09:39:03.397Z,12.65
2023-02-19T09:40:03.368Z,12.54
2023-02-19T09:41:03.362Z,12.24
2023-02-19T09:42:03.354Z,11.65
2023-02-19T09:43:03.355Z,11.04
2023-02-19T09:44:03.346Z,11.00
2023-02-19T09:45:03.328Z,11.30
2023-02-19T09:46:03.595Z,11.48
2023-02-19T09:47:03.296Z,11.51
2023-02-19T09:48:03.306Z,11.65
2023-02-19T09:49:03.301Z,11.78
2023-02-19T09:50:03.570Z,11.66
2023-02-19T09:51:03.262Z,11.27
2023-02-19T09:52:03.242Z,11.04
2023-02-19T09:53:03.267Z,10.72
2023-02-19T09:54:03.216Z,10.76
2023-02-19T09:55:03.204Z,10.71
2023-02-19T09:56:03.192Z,10.81
2023-02-19T09:57:03.184Z,11.07
2023-02-19T09:58:03.175Z,11.04
2023-02-19T09:59:03.167Z,10.90
2023-02-19T10:00:03.149Z,10.89
2023-02-19T10:01:03.161Z,11.40
2023-02-19T10:02:03.135Z,11.62
2023-02-19T10:03:03.140Z,12.04
2023-02-19T10:04:03.119Z,12.09
2023-02-19T10:05:03.172Z,12.36
2023-02-19T10:06:03.083Z,12.22
2023-02-19T10:07:03.086Z,12.07
2023-02-19T10:08:03.053Z,13.08
2023-02-19T10:09:03.278Z,13.92
2023-02-19T10:10:03.068Z,14.58
2023-02-19T10:11:03.052Z,14.51
2023-02-19T10:12:03.010Z,13.96
2023-02-19T10:13:03.000Z,13.44
2023-02-19T10:14:02.988Z,13.37
2023-02-19T10:15:03.027Z,13.27
2023-02-19T10:16:03.092Z,12.98
2023-02-19T10:17:02.960Z,12.76
2023-02-19T10:18:02.955Z,12.43
2023-02-19T10:19:02.935Z,12.70
2023-02-19T10:20:03.074Z,12.97
2023-02-19T10:21:02.915Z,12.90
2023-02-19T10:22:02.916Z,13.50
2023-02-19T10:23:02.895Z,14.51
2023-02-19T10:24:02.884Z,14.45
2023-02-19T10:25:02.900Z,14.07
2023-02-19T10:26:02.866Z,13.49
2023-02-19T10:27:02.840Z,12.83
2023-02-19T10:28:02.838Z,12.47
2023-02-19T10:29:02.862Z,12.28
2023-02-19T10:30:02.911Z,12.55
2023-02-19T10:31:02.814Z,12.95
2023-02-19T10:32:02.800Z,12.55
2023-02-19T10:33:02.790Z,12.39
2023-02-19T10:34:02.763Z,12.24
2023-02-19T10:35:03.053Z,12.13
2023-02-19T10:36:02.739Z,11.88
2023-02-19T10:37:02.739Z,11.88
2023-02-19T10:38:02.720Z,11.72
2023-02-19T10:39:02.713Z,13.00
2023-02-19T10:40:02.738Z,13.54
2023-02-19T10:41:02.705Z,14.00
2023-02-19T10:42:02.673Z,14.05
2023-02-19T10:43:02.667Z,14.91
2023-02-19T10:44:02.653Z,15.54
2023-02-19T10:45:02.657Z,15.11
2023-02-19T10:46:02.630Z,15.06
2023-02-19T10:47:02.618Z,15.11
2023-02-19T10:48:02.606Z,14.55
2023-02-19T10:49:02.603Z,14.53
2023-02-19T10:50:04.602Z,13.90
2023-02-19T10:51:02.581Z,14.14
2023-02-19T10:52:02.560Z,14.04
2023-02-19T10:53:02.557Z,13.59
2023-02-19T10:54:02.546Z,13.46
2023-02-19T10:55:02.545Z,13.53
2023-02-19T10:56:02.715Z,13.87
2023-02-19T10:57:02.518Z,13.42
2023-02-19T10:58:02.497Z,13.15
2023-02-19T10:59:02.501Z,12.86
2023-02-19T11:00:02.475Z,12.87
2023-02-19T11:01:04.325Z,12.57
2023-02-19T11:02:02.584Z,12.21
2023-02-19T11:03:02.441Z,12.18
2023-02-19T11:04:02.497Z,12.42
2023-02-19T11:05:02.421Z,13.54
2023-02-19T11:06:02.405Z,14.30
2023-02-19T11:07:03.046Z,14.03
2023-02-19T11:08:02.407Z,13.65
2023-02-19T11:09:02.373Z,13.77
2023-02-19T11:10:02.376Z,13.53
2023-02-19T11:11:02.365Z,14.12
2023-02-19T11:12:02.344Z,14.43
2023-02-19T11:13:02.512Z,14.17
2023-02-19T11:14:02.317Z,13.59
2023-02-19T11:15:02.349Z,13.37
2023-02-19T11:16:02.327Z,12.90
2023-02-19T11:17:02.285Z,12.65
2023-02-19T11:18:02.275Z,12.93
2023-02-19T11:19:02.260Z,12.91
2023-02-19T11:20:02.263Z,12.60
2023-02-19T11:21:02.239Z,12.37
2023-02-19T11:22:02.243Z,12.35
2023-02-19T11:23:02.227Z,12.46
2023-02-19T11:24:02.331Z,12.53
2023-02-19T11:25:02.215Z,12.27
2023-02-19T11:26:02.181Z,12.04
2023-02-19T11:27:02.198Z,11.72
2023-02-19T11:28:02.191Z,11.52
2023-02-19T11:29:02.147Z,11.32
2023-02-19T11:30:03.024Z,11.27
2023-02-19T11:31:02.180Z,11.14
2023-02-19T11:32:02.217Z,11.07
2023-02-19T11:33:02.105Z,11.04
2023-02-19T11:34:02.102Z,10.86
2023-02-19T11:35:02.085Z,10.87
2023-02-19T11:36:02.080Z,10.69
2023-02-19T11:37:02.058Z,11.15
2023-02-19T11:38:02.098Z,11.32
2023-02-19T11:39:02.091Z,11.07
2023-02-19T11:40:02.049Z,11.05
2023-02-19T11:41:02.038Z,11.07
2023-02-19T11:42:02.013Z,11.70
2023-02-19T11:43:02.002Z,12.78
2023-02-19T11:44:01.984Z,13.53
2023-02-19T11:45:02.088Z,14.18
2023-02-19T11:46:01.988Z,14.89
2023-02-19T11:47:01.961Z,14.81
2023-02-19T11:48:01.952Z,14.26
2023-02-19T11:49:01.935Z,13.71
2023-02-19T11:50:01.918Z,13.97
2023-02-19T11:51:01.930Z,14.45
2023-02-19T11:52:01.895Z,14.26
2023-02-19T11:53:01.889Z,13.78
2023-02-19T11:54:01.872Z,13.49
2023-02-19T11:55:01.857Z,14.12
2023-02-19T11:56:01.926Z,14.78
2023-02-19T11:57:01.845Z,15.33
2023-02-19T11:58:01.826Z,15.73
2023-02-19T11:59:02.037Z,16.31
2023-02-19T12:00:01.831Z,16.68
2023-02-19T12:01:01.793Z,17.04
2023-02-19T12:02:02.634Z,17.34
2023-02-19T12:03:01.767Z,17.33
2023-02-19T12:04:01.779Z,17.31
2023-02-19T12:05:01.770Z,17.48
2023-02-19T12:06:01.745Z,17.63
2023-02-19T12:07:01.725Z,17.39
2023-02-19T12:08:01.731Z,17.57
2023-02-19T12:09:01.702Z,17.63
2023-02-19T12:10:01.725Z,17.64
2023-02-19T12:11:01.678Z,17.79
2023-02-19T12:12:01.666Z,17.82
2023-02-19T12:13:01.906Z,17.76
2023-02-19T12:14:01.664Z,17.46
2023-02-19T12:15:01.631Z,17.57
2023-02-19T12:16:01.635Z,17.85
2023-02-19T12:17:02.810Z,18.00
2023-02-19T12:18:01.602Z,18.26
2023-02-19T12:19:01.681Z,18.40
2023-02-19T12:20:01.593Z,18.37
2023-02-19T12:21:01.572Z,18.22
2023-02-19T12:22:01.554Z,17.98
2023-02-19T12:23:01.547Z,17.86
2023-02-19T12:24:01.551Z,17.59
2023-02-19T12:25:01.527Z,17.44
2023-02-19T12:26:01.520Z,17.45
2023-02-19T12:27:01.522Z,17.42
2023-02-19T12:28:01.489Z,17.29
2023-02-19T12:29:01.497Z,16.90
2023-02-19T12:30:02.133Z,16.41
2023-02-19T12:31:09.112Z,16.12
2023-02-19T12:32:01.501Z,15.64
2023-02-19T12:33:01.439Z,15.43
2023-02-19T12:34:01.441Z,15.61
2023-02-19T12:35:01.408Z,16.09
2023-02-19T12:36:01.407Z,16.32
2023-02-19T12:37:01.388Z,16.36
2023-02-19T12:38:02.102Z,16.49
2023-02-19T12:39:01.377Z,16.53
2023-02-19T12:40:01.369Z,16.78
2023-02-19T12:41:01.355Z,17.09
2023-02-19T12:42:01.340Z,17.04
2023-02-19T12:43:01.338Z,17.09
2023-02-19T12:44:01.331Z,16.96
2023-02-19T12:45:01.297Z,16.81
2023-02-19T12:46:01.394Z,16.90
2023-02-19T12:47:01.288Z,17.16
2023-02-19T12:48:01.276Z,17.14
2023-02-19T12:49:01.254Z,17.34
2023-02-19T12:50:01.261Z,17.64
2023-02-19T12:51:01.280Z,17.83
2023-02-19T12:52:01.227Z,17.39
2023-02-19T12:53:01.423Z,17.01
2023-02-19T12:54:01.222Z,16.60
2023-02-19T12:55:01.238Z,16.53
2023-02-19T12:56:01.193Z,16.39
2023-02-19T12:57:01.202Z,16.26
2023-02-19T12:58:01.167Z,16.43
2023-02-19T12:59:01.146Z,16.66
2023-02-19T13:00:01.160Z,16.47
2023-02-19T13:01:01.160Z,16.35
2023-02-19T13:02:01.166Z,16.32
2023-02-19T13:03:01.114Z,16.29
2023-02-19T13:04:01.100Z,16.15
2023-02-19T13:05:01.279Z,15.95
2023-02-19T13:06:01.079Z,15.91
2023-02-19T13:07:01.064Z,16.08
2023-02-19T13:08:01.057Z,16.21